createdAt,value
2022-12-23T00:01:18.361Z,1.20
2022-12-23T00:03:20.404Z,1.30
2022-12-23T00:05:22.535Z,1.52
2022-12-23T00:07:24.511Z,1.50
2022-12-23T00:09:26.506Z,1.70
2022-12-23T00:11:29.081Z,1.38
2022-12-23T00:13:34.201Z,1.90
2022-12-23T00:15:36.270Z,1.42
2022-12-23T00:17:43.028Z,1.50
2022-12-23T00:19:45.148Z,1.88
2022-12-23T00:21:48.715Z,1.88
2022-12-23T00:23:51.875Z,2.58
2022-12-23T00:25:54.067Z,1.70
2022-12-23T00:27:59.113Z,1.77
2022-12-23T00:30:01.150Z,1.60
2022-12-23T00:32:03.250Z,1.95
2022-12-23T00:34:05.145Z,1.95
2022-12-23T00:36:13.488Z,1.63
2022-12-23T00:38:16.273Z,1.70
2022-12-23T00:40:21.535Z,1.52
2022-12-23T00:42:26.526Z,1.80
2022-12-23T00:44:28.591Z,1.80
2022-12-23T00:46:31.334Z,2.63
2022-12-23T00:48:36.688Z,1.40
2022-12-23T00:50:40.038Z,1.33
2022-12-23T00:52:41.954Z,1.83
2022-12-23T00:54:44.037Z,1.95
2022-12-23T00:56:46.118Z,2.03
2022-12-23T00:58:48.029Z,1.60
2022-12-23T01:00:53.136Z,1.67
2022-12-23T01:02:58.348Z,1.80
2022-12-23T01:05:03.489Z,2.15
2022-12-23T01:07:06.316Z,1.77
2022-12-23T01:09:08.267Z,1.60
2022-12-23T01:11:12.170Z,2.17
2022-12-23T01:13:14.119Z,2.17
2022-12-23T01:15:16.162Z,2.00
2022-12-23T01:17:18.216Z,2.15
2022-12-23T01:19:20.690Z,2.25
2022-12-23T01:21:22.686Z,2.15
2022-12-23T01:23:24.630Z,2.25
2022-12-23T01:25:26.577Z,2.35
2022-12-23T01:27:28.615Z,2.92
2022-12-23T01:29:30.571Z,2.58
2022-12-23T01:31:32.632Z,2.50
2022-12-23T01:33:34.616Z,2.50
2022-12-23T01:35:36.542Z,2.13
2022-12-23T01:37:38.473Z,2.25
2022-12-23T01:39:40.651Z,2.00
2022-12-23T01:41:45.827Z,2.28
2022-12-23T01:43:50.561Z,2.53
2022-12-23T01:45:52.624Z,2.53
2022-12-23T01:47:58.025Z,2.35
2022-12-23T01:50:07.261Z,2.70
2022-12-23T01:52:10.908Z,2.50
2022-12-23T01:54:12.846Z,2.63
2022-12-23T01:56:21.370Z,2.42
2022-12-23T01:58:30.647Z,1.92
2022-12-23T02:00:35.642Z,2.38
2022-12-23T02:02:44.233Z,2.83
2022-12-23T02:04:47.725Z,2.85
2022-12-23T02:06:54.215Z,2.50
2022-12-23T02:09:00.671Z,2.50
2022-12-23T02:11:08.987Z,2.90
2022-12-23T02:13:21.449Z,2.75
2022-12-23T02:15:35.552Z,3.20
2022-12-23T02:17:44.176Z,2.83
2022-12-23T02:20:02.382Z,2.42
2022-12-23T02:22:07.869Z,2.92
2022-12-23T02:24:14.417Z,2.22
2022-12-23T02:26:22.724Z,3.00
2022-12-23T02:28:28.304Z,2.17
2022-12-23T02:30:40.963Z,1.98
2022-12-23T02:32:48.785Z,2.05
2022-12-23T02:34:51.565Z,1.92
2022-12-23T02:37:00.667Z,1.95
2022-12-23T02:39:08.912Z,1.83
2022-12-23T02:41:23.231Z,1.90
2022-12-23T02:43:31.108Z,1.63
2022-12-23T02:45:40.672Z,2.33
2022-12-23T02:47:50.927Z,2.13
2022-12-23T02:49:58.089Z,2.10
2022-12-23T02:52:03.528Z,2.25
2022-12-23T02:54:12.028Z,2.20
2022-12-23T02:56:17.295Z,1.95
2022-12-23T02:58:23.270Z,2.10
2022-12-23T03:00:25.316Z,1.80
2022-12-23T03:02:27.789Z,2.03
2022-12-23T03:04:30.045Z,1.70
2022-12-23T03:06:39.555Z,2.17
2022-12-23T03:08:44.950Z,2.15
2022-12-23T03:10:48.767Z,1.58
2022-12-23T03:12:51.459Z,1.88
2022-12-23T03:14:56.315Z,1.90
2022-12-23T03:17:04.223Z,1.90
2022-12-23T03:19:12.540Z,1.85
2022-12-23T03:21:20.504Z,1.70
2022-12-23T03:23:30.744Z,1.23
2022-12-23T03:25:40.794Z,1.58
2022-12-23T03:27:51.861Z,1.58
2022-12-23T03:29:56.580Z,1.30
2022-12-23T03:32:01.710Z,1.45
2022-12-23T03:34:10.899Z,1.55
2022-12-23T03:36:22.595Z,1.55
2022-12-23T03:38:26.393Z,1.40
2022-12-23T03:40:36.335Z,1.08
2022-12-23T03:42:42.005Z,1.13
2022-12-23T03:45:19.080Z,1.00
2022-12-23T03:47:15.022Z,1.27
2022-12-23T03:49:27.849Z,0.85
2022-12-23T03:51:34.448Z,0.98
2022-12-23T03:53:42.531Z,0.82
2022-12-23T03:55:51.740Z,1.25
2022-12-23T03:58:00.061Z,0.90
2022-12-23T04:00:02.241Z,0.80
2022-12-23T04:02:09.016Z,0.73
2022-12-23T04:04:12.048Z,1.00
2022-12-23T04:06:17.897Z,0.70
2022-12-23T04:08:26.682Z,0.50
2022-12-23T04:10:29.083Z,0.80
2022-12-23T04:12:32.031Z,0.80
2022-12-23T04:14:37.039Z,0.73
2022-12-23T04:16:39.092Z,0.80
2022-12-23T04:18:41.059Z,1.13
2022-12-23T04:20:42.986Z,0.60
2022-12-23T04:22:45.123Z,0.85
2022-12-23T04:24:47.116Z,0.82
2022-12-23T04:26:49.107Z,0.85
2022-12-23T04:28:50.998Z,0.90
2022-12-23T04:30:52.980Z,0.60
2022-12-23T04:32:54.952Z,0.52
2022-12-23T04:34:56.853Z,0.70
2022-12-23T04:36:58.826Z,1.02
2022-12-23T04:39:00.775Z,0.98
2022-12-23T04:41:02.874Z,1.02
2022-12-23T04:43:04.753Z,1.00
2022-12-23T04:45:07.548Z,0.70
2022-12-23T04:47:09.556Z,0.82
2022-12-23T04:49:11.721Z,1.00
2022-12-23T04:51:13.702Z,0.63
2022-12-23T04:53:15.762Z,0.70
2022-12-23T04:55:17.776Z,0.70
2022-12-23T04:57:19.717Z,0.70
2022-12-23T04:59:21.683Z,0.98
2022-12-23T05:01:23.745Z,0.70
2022-12-23T05:03:26.031Z,0.52
2022-12-23T05:05:28.010Z,1.00
2022-12-23T05:07:29.962Z,0.57
2022-12-23T05:09:32.073Z,0.60
2022-12-23T05:11:38.554Z,0.73
2022-12-23T05:13:44.025Z,0.60
2022-12-23T05:15:50.141Z,0.40
2022-12-23T05:17:52.205Z,0.35
2022-12-23T05:19:54.268Z,0.50
2022-12-23T05:21:56.268Z,0.40
2022-12-23T05:23:58.345Z,0.55
2022-12-23T05:26:00.543Z,0.40
2022-12-23T05:28:02.942Z,0.50
2022-12-23T05:30:05.688Z,0.30
2022-12-23T05:32:07.755Z,0.30
2022-12-23T05:34:09.908Z,0.30
2022-12-23T05:36:13.013Z,0.30
2022-12-23T05:38:14.988Z,0.25
2022-12-23T05:40:23.153Z,0.75
2022-12-23T05:42:25.545Z,0.30
2022-12-23T05:44:27.503Z,0.20
2022-12-23T05:46:29.763Z,0.30
2022-12-23T05:48:31.977Z,0.30
2022-12-23T05:50:34.284Z,0.30
2022-12-23T05:52:36.257Z,0.20
2022-12-23T05:54:38.190Z,0.20
2022-12-23T05:56:40.107Z,0.13
2022-12-23T05:58:43.081Z,0.28
2022-12-23T06:00:45.122Z,0.30
2022-12-23T06:02:53.632Z,0.20
2022-12-23T06:04:56.325Z,0.20
2022-12-23T06:06:58.290Z,0.20
2022-12-23T06:09:00.491Z,0.10
2022-12-23T06:11:05.275Z,0.10
2022-12-23T06:13:07.341Z,0.20
2022-12-23T06:15:10.043Z,0.10
2022-12-23T06:17:11.968Z,0.20
2022-12-23T06:19:13.960Z,0.17
2022-12-23T06:21:16.033Z,0.30
2022-12-23T06:23:18.080Z,0.20
2022-12-23T06:25:20.143Z,0.30
2022-12-23T06:27:22.144Z,0.38
2022-12-23T06:29:24.429Z,0.40
2022-12-23T06:31:26.375Z,0.10
2022-12-23T06:33:28.314Z,0.30
2022-12-23T06:35:30.524Z,0.20
2022-12-23T06:37:32.486Z,0.28
2022-12-23T06:39:34.624Z,0.30
2022-12-23T06:41:36.873Z,0.30
2022-12-23T06:43:39.081Z,0.30
2022-12-23T06:45:41.618Z,0.60
2022-12-23T06:47:43.661Z,0.30
2022-12-23T06:49:45.625Z,0.22
2022-12-23T06:51:47.643Z,0.30
2022-12-23T06:53:49.639Z,0.35
2022-12-23T06:55:59.906Z,0.40
2022-12-23T06:58:02.038Z,0.43
2022-12-23T07:00:05.796Z,0.50
2022-12-23T07:02:09.645Z,0.70
2022-12-23T07:04:11.708Z,0.50
2022-12-23T07:06:14.018Z,0.60
2022-12-23T07:08:16.492Z,0.50
2022-12-23T07:10:18.411Z,0.65
2022-12-23T07:12:20.424Z,0.82
2022-12-23T07:14:22.434Z,0.77
2022-12-23T07:16:24.400Z,0.82
2022-12-23T07:18:26.596Z,0.75
2022-12-23T07:20:28.586Z,1.00
2022-12-23T07:22:30.911Z,0.68
2022-12-23T07:24:32.885Z,0.85
2022-12-23T07:26:34.855Z,0.57
2022-12-23T07:28:36.815Z,0.80
2022-12-23T07:30:38.844Z,1.15
2022-12-23T07:32:40.934Z,0.90
2022-12-23T07:34:42.908Z,1.02
2022-12-23T07:36:44.897Z,1.20
2022-12-23T07:38:51.456Z,1.40
2022-12-23T07:40:53.443Z,1.15
2022-12-23T07:42:58.057Z,1.00
2022-12-23T07:44:59.985Z,0.77
2022-12-23T07:47:02.163Z,0.85
2022-12-23T07:49:04.164Z,0.90
2022-12-23T07:51:06.633Z,0.77
2022-12-23T07:53:08.993Z,0.80
2022-12-23T07:55:10.931Z,1.05
2022-12-23T07:57:12.895Z,0.98
2022-12-23T07:59:14.977Z,1.13
2022-12-23T08:01:17.928Z,1.20
2022-12-23T08:03:20.091Z,1.38
2022-12-23T08:05:22.455Z,1.52
2022-12-23T08:07:24.504Z,1.10
2022-12-23T08:09:26.499Z,1.50
2022-12-23T08:11:28.653Z,1.65
2022-12-23T08:13:32.299Z,1.77
2022-12-23T08:15:34.321Z,1.40
2022-12-23T08:17:36.337Z,1.80
2022-12-23T08:19:38.339Z,1.25
2022-12-23T08:21:40.272Z,1.42
2022-12-23T08:23:43.836Z,1.52
2022-12-23T08:25:45.823Z,1.80
2022-12-23T08:27:47.908Z,2.45
2022-12-23T08:29:49.981Z,2.33
2022-12-23T08:31:52.033Z,2.40
2022-12-23T08:33:57.012Z,2.55
2022-12-23T08:35:59.230Z,2.40
2022-12-23T08:38:01.235Z,2.38
2022-12-23T08:40:03.626Z,2.40
2022-12-23T08:42:05.801Z,2.20
2022-12-23T08:44:08.623Z,2.47
2022-12-23T08:46:11.160Z,2.85
2022-12-23T08:48:13.965Z,2.40
2022-12-23T08:50:16.097Z,2.72
2022-12-23T08:52:18.039Z,2.53
2022-12-23T08:54:20.674Z,2.67
2022-12-23T08:56:24.331Z,2.97
2022-12-23T08:58:26.402Z,3.28
2022-12-23T09:00:28.314Z,3.08
2022-12-23T09:02:30.518Z,3.25
2022-12-23T09:04:32.870Z,2.50
2022-12-23T09:06:40.881Z,2.20
2022-12-23T09:08:43.542Z,0.90
2022-12-23T09:10:45.547Z,0.95
2022-12-23T09:12:47.889Z,0.70
2022-12-23T09:14:49.846Z,0.60
2022-12-23T09:16:52.666Z,0.50
2022-12-23T09:18:55.050Z,0.82
2022-12-23T09:21:00.064Z,0.57
2022-12-23T09:23:02.375Z,1.00
2022-12-23T09:25:05.468Z,1.80
2022-12-23T09:27:07.537Z,1.88
2022-12-23T09:29:09.566Z,2.08
2022-12-23T09:31:13.592Z,1.70
2022-12-23T09:33:15.711Z,1.50
2022-12-23T09:35:17.934Z,1.15
2022-12-23T09:37:20.465Z,0.68
2022-12-23T09:39:22.607Z,1.10
2022-12-23T09:41:30.856Z,0.98
2022-12-23T09:43:36.383Z,1.02
2022-12-23T09:45:44.609Z,0.52
2022-12-23T09:47:47.074Z,0.70
2022-12-23T09:49:54.290Z,0.80
2022-12-23T09:52:02.100Z,0.73
2022-12-23T09:54:17.426Z,0.98
2022-12-23T09:56:28.091Z,0.85
2022-12-23T09:58:37.127Z,1.00
2022-12-23T10:00:44.200Z,0.80
2022-12-23T10:02:48.398Z,0.85
2022-12-23T10:04:56.875Z,1.00
2022-12-23T10:07:03.256Z,0.88
2022-12-23T10:09:09.816Z,0.88
2022-12-23T10:11:17.354Z,0.95
2022-12-23T10:13:26.528Z,0.77
2022-12-23T10:15:33.028Z,1.10
2022-12-23T10:17:41.924Z,1.40
2022-12-23T10:19:47.709Z,1.42
2022-12-23T10:21:55.425Z,1.40
2022-12-23T10:24:01.326Z,2.45
2022-12-23T10:26:12.624Z,1.52
2022-12-23T10:28:14.651Z,1.73
2022-12-23T10:32:49.663Z,2.40
2022-12-23T10:34:58.111Z,2.38
2022-12-23T10:37:06.055Z,3.05
2022-12-23T10:39:18.926Z,2.40
2022-12-23T10:41:38.409Z,2.25
2022-12-23T10:43:52.447Z,2.33
2022-12-23T10:46:08.039Z,2.22
2022-12-23T10:48:14.442Z,2.53
2022-12-23T10:50:22.902Z,2.70
2022-12-23T10:52:28.801Z,2.95
2022-12-23T10:54:35.242Z,2.55
2022-12-23T10:56:37.665Z,2.67
2022-12-23T10:58:43.946Z,2.60
2022-12-23T11:00:53.565Z,3.10
2022-12-23T11:02:59.197Z,2.72
2022-12-23T11:05:01.311Z,2.70
2022-12-23T11:07:41.938Z,2.83
2022-12-23T11:09:36.908Z,2.92
2022-12-23T11:11:45.127Z,2.80
2022-12-23T11:13:47.917Z,2.10
2022-12-23T11:15:50.269Z,2.40
2022-12-23T11:17:58.898Z,2.22
2022-12-23T11:20:07.308Z,2.83
2022-12-23T11:22:23.748Z,2.30
2022-12-23T11:24:28.533Z,1.83
2022-12-23T11:26:30.973Z,2.10
2022-12-23T11:28:36.563Z,2.83
2022-12-23T11:30:56.196Z,2.65
2022-12-23T11:32:59.529Z,2.33
2022-12-23T11:35:01.623Z,2.53
2022-12-23T11:37:07.571Z,3.25
2022-12-23T11:39:12.648Z,2.90
2022-12-23T11:41:21.225Z,2.63
2022-12-23T11:43:26.457Z,2.05
2022-12-23T11:45:33.480Z,1.95
2022-12-23T11:47:41.533Z,2.50
2022-12-23T11:49:49.721Z,2.72
2022-12-23T11:51:58.185Z,2.60
2022-12-23T11:54:02.432Z,2.50
2022-12-23T11:56:08.587Z,2.20
2022-12-23T11:58:18.688Z,2.00
2022-12-23T12:00:26.635Z,2.05
2022-12-23T12:02:32.543Z,3.55
2022-12-23T12:04:36.190Z,3.83
2022-12-23T12:06:51.135Z,2.10
2022-12-23T12:08:56.315Z,1.60
2022-12-23T12:11:05.360Z,1.35
2022-12-23T12:13:22.114Z,1.88
2022-12-23T12:15:30.459Z,1.20
2022-12-23T12:17:38.688Z,1.10
2022-12-23T12:19:50.748Z,1.92
2022-12-23T12:21:59.606Z,1.20
2022-12-23T12:24:19.025Z,1.48
2022-12-23T12:26:28.789Z,1.40
2022-12-23T12:28:39.778Z,1.20
2022-12-23T12:30:51.212Z,1.10
2022-12-23T12:33:01.102Z,1.50
2022-12-23T12:35:11.930Z,1.10
2022-12-23T12:39:29.111Z,1.08
2022-12-23T12:41:34.746Z,1.33
2022-12-23T12:43:44.867Z,1.27
2022-12-23T12:45:54.137Z,1.38
2022-12-23T12:48:12.813Z,1.23
2022-12-23T12:50:24.641Z,0.82
2022-12-23T12:52:28.307Z,1.00
2022-12-23T12:54:40.272Z,1.63
2022-12-23T12:56:50.240Z,1.20
2022-12-23T12:58:52.438Z,1.23
2022-12-23T13:00:58.212Z,0.90
2022-12-23T13:03:06.641Z,1.85
2022-12-23T13:05:14.788Z,0.98
2022-12-23T13:07:23.070Z,0.82
2022-12-23T13:09:31.392Z,1.60
2022-12-23T13:11:38.027Z,1.05
2022-12-23T13:13:43.489Z,1.70
2022-12-23T13:15:47.557Z,1.40
2022-12-23T13:17:58.889Z,1.02
2022-12-23T13:20:10.458Z,1.17
2022-12-23T13:22:18.147Z,1.13
2022-12-23T13:24:24.653Z,1.23
2022-12-23T13:26:36.450Z,0.95
2022-12-23T13:28:48.848Z,1.42
2022-12-23T13:31:06.441Z,1.38
2022-12-23T13:33:18.879Z,1.00
2022-12-23T13:35:25.384Z,1.38
2022-12-23T13:37:33.547Z,1.20
2022-12-23T13:39:45.881Z,1.00
2022-12-23T13:41:52.173Z,1.00
2022-12-23T13:43:59.656Z,0.90
2022-12-23T13:46:09.234Z,0.90
2022-12-23T13:48:15.895Z,0.98
2022-12-23T13:50:34.320Z,1.15
2022-12-23T13:52:44.166Z,1.25
2022-12-23T13:54:49.783Z,0.90
2022-12-23T13:57:08.538Z,1.48
2022-12-23T13:59:14.661Z,1.83
2022-12-23T14:01:18.594Z,1.15
2022-12-23T14:03:25.524Z,0.90
2022-12-23T14:05:31.026Z,1.52
2022-12-23T14:07:34.401Z,1.48
2022-12-23T14:09:38.748Z,1.30
2022-12-23T14:11:41.177Z,1.10
2022-12-23T14:13:46.174Z,1.92
2022-12-23T14:15:51.751Z,0.98
2022-12-23T14:18:02.554Z,1.52
2022-12-23T14:20:12.632Z,1.98
2022-12-23T14:22:18.107Z,1.15
2022-12-23T14:24:26.470Z,0.95
2022-12-23T14:26:43.077Z,1.25
2022-12-23T14:28:52.345Z,1.40
2022-12-23T14:30:54.966Z,1.42
2022-12-23T14:33:02.492Z,1.05
2022-12-23T14:35:16.077Z,2.28
2022-12-23T14:37:21.987Z,1.75
2022-12-23T14:39:31.528Z,1.55
2022-12-23T14:41:39.010Z,1.85
2022-12-23T14:43:44.727Z,1.40
2022-12-23T14:45:47.046Z,1.45
2022-12-23T14:47:49.432Z,0.70
2022-12-23T14:49:51.852Z,1.10
2022-12-23T14:51:54.143Z,1.23
2022-12-23T14:53:59.772Z,0.90
2022-12-23T14:56:08.096Z,0.95
2022-12-23T14:58:11.983Z,1.50
2022-12-23T15:00:14.788Z,0.95
2022-12-23T15:02:25.400Z,1.52
2022-12-23T15:04:44.464Z,1.85
2022-12-23T15:06:51.354Z,1.25
2022-12-23T15:08:55.950Z,1.17
2022-12-23T15:10:58.417Z,1.48
2022-12-23T15:13:04.879Z,0.95
2022-12-23T15:15:15.330Z,1.20
2022-12-23T15:17:26.947Z,1.23
2022-12-23T15:19:29.022Z,2.03
2022-12-23T15:21:36.373Z,0.80
2022-12-23T15:23:39.017Z,1.27
2022-12-23T15:25:45.006Z,0.70
2022-12-23T15:27:47.663Z,0.82
2022-12-23T15:29:53.725Z,0.98
2022-12-23T15:31:58.784Z,1.45
2022-12-23T15:34:13.330Z,0.73
2022-12-23T15:36:27.102Z,0.82
2022-12-23T15:38:32.073Z,0.80
2022-12-23T15:40:35.921Z,0.60
2022-12-23T15:42:39.037Z,0.80
2022-12-23T15:44:41.060Z,0.98
2022-12-23T15:46:44.628Z,0.70
2022-12-23T15:48:48.096Z,0.80
2022-12-23T15:50:53.473Z,1.10
2022-12-23T15:53:00.279Z,1.10
2022-12-23T15:55:14.289Z,0.80
2022-12-23T15:57:20.702Z,1.10
2022-12-23T15:59:27.773Z,0.68
2022-12-23T16:01:38.510Z,1.17
2022-12-23T16:03:42.895Z,1.15
2022-12-23T16:05:44.965Z,2.00
2022-12-23T16:07:46.758Z,1.25
2022-12-23T16:09:54.518Z,0.80
2022-12-23T16:11:58.386Z,1.35
2022-12-23T16:14:20.302Z,1.40
2022-12-23T16:16:34.584Z,1.00
2022-12-23T16:18:47.192Z,1.23
2022-12-23T16:20:53.838Z,1.35
2022-12-23T16:23:00.749Z,0.80
2022-12-23T16:25:20.141Z,2.78
2022-12-23T16:27:33.435Z,1.05
2022-12-23T16:29:35.277Z,1.20
2022-12-23T16:31:37.874Z,1.23
2022-12-23T16:33:44.788Z,1.52
2022-12-23T16:35:46.741Z,1.92
2022-12-23T16:37:51.273Z,1.30
2022-12-23T16:39:53.354Z,1.33
2022-12-23T16:41:55.151Z,1.38
2022-12-23T16:43:56.861Z,1.58
2022-12-23T16:45:59.204Z,1.13
2022-12-23T16:48:02.655Z,1.17
2022-12-23T16:50:05.445Z,1.67
2022-12-23T16:52:09.306Z,1.25
2022-12-23T16:54:17.115Z,1.13
2022-12-23T16:56:21.202Z,1.23
2022-12-23T16:58:23.000Z,0.95
2022-12-23T17:00:25.071Z,1.10
2022-12-23T17:02:28.863Z,0.90
2022-12-23T17:04:30.695Z,1.20
2022-12-23T17:06:32.755Z,0.93
2022-12-23T17:08:35.566Z,1.23
2022-12-23T17:10:39.641Z,2.53
2022-12-23T17:12:43.194Z,1.55
2022-12-23T17:14:44.933Z,1.70
2022-12-23T17:16:47.871Z,1.33
2022-12-23T17:18:50.927Z,1.10
2022-12-23T17:20:52.760Z,2.00
2022-12-23T17:22:58.555Z,1.50
2022-12-23T17:25:00.317Z,1.48
2022-12-23T17:27:02.104Z,1.50
2022-12-23T17:29:05.164Z,1.10
2022-12-23T17:31:13.929Z,1.40
2022-12-23T17:33:18.677Z,1.35
2022-12-23T17:35:21.004Z,1.77
2022-12-23T17:37:23.004Z,1.60
2022-12-23T17:39:24.720Z,1.98
2022-12-23T17:41:31.011Z,1.17
2022-12-23T17:43:32.725Z,1.55
2022-12-23T17:45:34.612Z,1.88
2022-12-23T17:47:36.360Z,2.25
2022-12-23T17:49:38.028Z,2.17
2022-12-23T17:51:40.528Z,2.22
2022-12-23T17:53:42.720Z,1.98
2022-12-23T17:55:44.728Z,1.75
2022-12-23T17:57:46.921Z,1.55
2022-12-23T17:59:49.760Z,1.92
2022-12-23T18:01:51.784Z,2.83
2022-12-23T18:03:56.156Z,2.13
2022-12-23T18:06:01.960Z,1.98
2022-12-23T18:08:04.139Z,1.60
2022-12-23T18:10:06.902Z,2.28
2022-12-23T18:12:24.935Z,2.20
2022-12-23T18:14:28.338Z,2.10
2022-12-23T18:16:30.477Z,2.42
2022-12-23T18:18:43.489Z,2.45
2022-12-23T18:20:51.018Z,3.95
2022-12-23T18:22:54.907Z,1.92
2022-12-23T18:24:59.577Z,2.28
2022-12-23T18:27:01.992Z,2.15
2022-12-23T18:29:03.772Z,2.53
2022-12-23T18:31:05.934Z,2.30
2022-12-23T18:33:11.335Z,2.55
2022-12-23T18:35:22.714Z,3.15
2022-12-23T18:37:24.624Z,2.85
2022-12-23T18:39:26.300Z,2.20
2022-12-23T18:41:28.327Z,3.17
2022-12-23T18:43:30.095Z,2.25
2022-12-23T18:45:42.036Z,3.05
2022-12-23T18:47:43.967Z,2.45
2022-12-23T18:49:45.750Z,2.28
2022-12-23T18:51:47.915Z,2.35
2022-12-23T18:53:49.658Z,2.92
2022-12-23T18:55:52.296Z,2.33
2022-12-23T18:57:54.492Z,2.67
2022-12-23T18:59:56.264Z,2.75
2022-12-23T19:01:58.579Z,2.40
2022-12-23T19:04:00.560Z,2.88
2022-12-23T19:06:07.075Z,2.47
2022-12-23T19:08:10.190Z,2.58
2022-12-23T19:10:16.912Z,2.78
2022-12-23T19:12:19.516Z,2.60
2022-12-23T19:14:21.350Z,3.28
2022-12-23T19:16:23.276Z,2.92
2022-12-23T19:18:25.050Z,2.75
2022-12-23T19:20:26.774Z,2.97
2022-12-23T19:22:28.509Z,2.38
2022-12-23T19:24:30.601Z,2.15
2022-12-23T19:26:32.429Z,2.40
2022-12-23T19:28:34.315Z,3.00
2022-12-23T19:30:36.902Z,3.03
2022-12-23T19:32:38.755Z,2.80
2022-12-23T19:34:40.505Z,2.45
2022-12-23T19:36:42.309Z,3.67
2022-12-23T19:38:44.206Z,2.45
2022-12-23T19:40:45.936Z,2.15
2022-12-23T19:42:47.696Z,3.38
2022-12-23T19:44:49.461Z,2.85
2022-12-23T19:46:51.306Z,2.33
2022-12-23T19:48:53.775Z,3.25
2022-12-23T19:50:58.696Z,4.18
2022-12-23T19:53:00.472Z,2.10
2022-12-23T19:55:02.474Z,3.72
2022-12-23T19:57:04.314Z,4.55
2022-12-23T19:59:06.009Z,2.97
2022-12-23T20:01:10.161Z,2.75
2022-12-23T20:03:12.248Z,2.72
2022-12-23T20:05:14.061Z,3.47
2022-12-23T20:07:16.160Z,2.72
2022-12-23T20:09:18.270Z,2.85
2022-12-23T20:11:23.787Z,2.88
2022-12-23T20:13:25.481Z,3.05
2022-12-23T20:15:27.287Z,3.17
2022-12-23T20:17:29.070Z,3.15
2022-12-23T20:19:30.799Z,3.47
2022-12-23T20:21:34.173Z,3.83
2022-12-23T20:23:35.916Z,2.65
2022-12-23T20:25:37.749Z,2.33
2022-12-23T20:27:39.515Z,2.75
2022-12-23T20:29:41.196Z,3.10
2022-12-23T20:31:43.428Z,3.75
2022-12-23T20:33:46.225Z,2.78
2022-12-23T20:35:47.890Z,2.67
2022-12-23T20:37:49.712Z,2.65
2022-12-23T20:39:51.568Z,3.58
2022-12-23T20:41:53.335Z,3.38
2022-12-23T20:46:18.105Z,3.70
2022-12-23T20:48:21.917Z,3.00
2022-12-23T20:50:23.854Z,3.63
2022-12-23T20:52:25.769Z,3.47
2022-12-23T20:54:32.659Z,3.97
2022-12-23T20:56:35.031Z,3.30
2022-12-23T20:58:47.454Z,3.20
2022-12-23T21:00:50.392Z,3.03
2022-12-23T21:02:52.366Z,3.38
2022-12-23T21:04:54.131Z,3.45
2022-12-23T21:06:56.014Z,3.17
2022-12-23T21:08:59.980Z,3.78
2022-12-23T21:11:02.722Z,2.33
2022-12-23T21:13:04.631Z,2.38
2022-12-23T21:15:07.213Z,3.55
2022-12-23T21:17:09.141Z,2.65
2022-12-23T21:19:17.580Z,3.90
2022-12-23T21:21:23.683Z,3.28
2022-12-23T21:23:26.291Z,2.72
2022-12-23T21:25:28.217Z,2.55
2022-12-23T21:27:30.118Z,2.70
2022-12-23T21:29:32.144Z,2.80
2022-12-23T21:31:36.334Z,3.20
2022-12-23T21:33:40.332Z,2.85
2022-12-23T21:35:42.088Z,2.30
2022-12-23T21:37:43.901Z,2.90
2022-12-23T21:39:45.777Z,2.80
2022-12-23T21:41:49.242Z,3.65
2022-12-23T21:43:52.156Z,3.45
2022-12-23T21:46:06.939Z,3.17
2022-12-23T21:48:08.975Z,3.70
2022-12-23T21:50:11.022Z,3.30
2022-12-23T21:52:12.792Z,2.67
2022-12-23T21:54:14.656Z,2.78
2022-12-23T21:56:20.644Z,3.33
2022-12-23T21:58:22.571Z,2.38
2022-12-23T22:00:24.518Z,3.30
2022-12-23T22:02:26.569Z,3.38
2022-12-23T22:04:28.533Z,3.17
2022-12-23T22:06:36.819Z,2.78
2022-12-23T22:08:39.290Z,1.80
2022-12-23T22:10:41.121Z,2.40
2022-12-23T22:12:42.935Z,2.45
2022-12-23T22:14:45.591Z,2.80
2022-12-23T22:16:47.653Z,2.72
2022-12-23T22:18:50.899Z,2.53
2022-12-23T22:20:52.782Z,3.20
2022-12-23T22:22:54.878Z,3.55
2022-12-23T22:24:56.672Z,2.60
2022-12-23T22:26:58.449Z,2.30
2022-12-23T22:29:02.158Z,2.13
2022-12-23T22:31:13.940Z,3.35
2022-12-23T22:33:16.008Z,2.40
2022-12-23T22:35:17.913Z,3.28
2022-12-23T22:37:19.718Z,2.75
2022-12-23T22:39:22.159Z,2.97
2022-12-23T22:41:25.802Z,2.65
2022-12-23T22:43:27.690Z,3.53
2022-12-23T22:45:29.611Z,3.45
2022-12-23T22:47:32.201Z,2.53
2022-12-23T22:49:34.111Z,2.58
2022-12-23T22:51:35.999Z,3.40
2022-12-23T22:53:38.008Z,3.03
2022-12-23T22:55:40.000Z,3.60
2022-12-23T22:57:41.941Z,3.10
2022-12-23T22:59:44.017Z,3.35
2022-12-23T23:01:46.064Z,2.88
2022-12-23T23:03:51.097Z,2.90
2022-12-23T23:06:06.106Z,3.03
2022-12-23T23:08:07.999Z,2.63
2022-12-23T23:10:10.739Z,3.78
2022-12-23T23:12:12.642Z,2.70
2022-12-23T23:14:14.732Z,2.95
2022-12-23T23:16:16.941Z,2.95
2022-12-23T23:18:19.141Z,3.58
2022-12-23T23:20:21.099Z,3.38
2022-12-23T23:22:24.635Z,3.05
2022-12-23T23:24:31.231Z,3.35
2022-12-23T23:26:33.413Z,2.88
2022-12-23T23:28:35.379Z,2.97
2022-12-23T23:30:37.733Z,3.20
2022-12-23T23:32:39.765Z,2.35
2022-12-23T23:34:42.389Z,3.17
2022-12-23T23:36:44.288Z,3.60
2022-12-23T23:38:46.150Z,3.75
2022-12-23T23:40:49.120Z,3.88
2022-12-23T23:42:51.018Z,3.63
2022-12-23T23:44:52.841Z,3.53
2022-12-23T23:46:54.739Z,3.00
2022-12-23T23:48:56.625Z,3.38
2022-12-23T23:51:06.735Z,3.88
2022-12-23T23:53:10.391Z,3.83
2022-12-23T23:55:12.647Z,2.95
2022-12-23T23:57:16.650Z,2.33
2022-12-23T23:59:18.559Z,3.72
